createdAt,value
2022-10-16T00:01:04.177Z,15.48
2022-10-16T00:04:12.268Z,15.20
2022-10-16T00:07:18.127Z,14.53
2022-10-16T00:10:24.920Z,14.55
2022-10-16T00:13:30.182Z,13.80
2022-10-16T00:16:36.364Z,14.40
2022-10-16T00:19:42.310Z,14.85
2022-10-16T00:22:49.755Z,14.95
2022-10-16T00:25:57.071Z,18.25
2022-10-16T00:29:06.618Z,19.27
2022-10-16T00:32:11.531Z,17.12
2022-10-16T00:35:17.438Z,17.40
2022-10-16T00:38:23.793Z,16.95
2022-10-16T00:41:31.990Z,16.97
2022-10-16T00:45:05.462Z,15.88
2022-10-16T00:48:12.325Z,16.48
2022-10-16T00:51:17.651Z,16.40
2022-10-16T00:54:33.500Z,16.75
2022-10-16T00:57:38.646Z,14.55
2022-10-16T01:00:45.608Z,14.90
2022-10-16T01:03:52.836Z,13.93
2022-10-16T01:07:02.522Z,13.20
2022-10-16T01:10:19.316Z,13.88
2022-10-16T01:13:43.639Z,13.95
2022-10-16T01:17:01.384Z,18.23
2022-10-16T01:20:17.734Z,13.40
2022-10-16T01:23:43.128Z,13.85
2022-10-16T01:27:26.022Z,14.43
2022-10-16T01:30:40.571Z,14.23
2022-10-16T01:34:03.160Z,13.38
2022-10-16T01:37:14.005Z,13.60
2022-10-16T01:40:26.955Z,12.95
2022-10-16T01:43:55.110Z,13.50
2022-10-16T01:47:03.801Z,13.88
2022-10-16T01:50:08.740Z,13.35
2022-10-16T01:53:14.313Z,13.25
2022-10-16T01:56:23.704Z,13.90
2022-10-16T01:59:32.375Z,14.10
2022-10-16T02:02:38.446Z,14.20
2022-10-16T02:06:01.176Z,13.38
2022-10-16T02:09:07.842Z,13.32
2022-10-16T02:12:14.416Z,12.88
2022-10-16T02:15:20.550Z,14.05
2022-10-16T02:18:26.970Z,13.15
2022-10-16T02:21:42.121Z,13.15
2022-10-16T02:24:54.393Z,13.15
2022-10-16T02:28:11.626Z,12.95
2022-10-16T02:31:21.541Z,12.63
2022-10-16T02:34:26.463Z,19.48
2022-10-16T02:37:31.701Z,13.03
2022-10-16T02:40:37.970Z,14.45
2022-10-16T02:43:45.016Z,13.75
2022-10-16T02:46:51.448Z,12.33
2022-10-16T02:49:57.396Z,12.47
2022-10-16T02:53:03.593Z,12.47
2022-10-16T02:56:08.729Z,13.90
2022-10-16T02:59:14.850Z,14.40
2022-10-16T03:02:20.863Z,13.20
2022-10-16T03:05:27.262Z,12.85
2022-10-16T03:08:32.890Z,12.93
2022-10-16T03:11:38.939Z,12.00
2022-10-16T03:14:44.678Z,12.40
2022-10-16T03:17:50.582Z,12.33
2022-10-16T03:20:57.919Z,12.37
2022-10-16T03:24:05.014Z,11.90
2022-10-16T03:27:12.258Z,12.65
2022-10-16T03:30:18.256Z,12.40
2022-10-16T03:33:25.172Z,12.23
2022-10-16T03:36:30.487Z,14.85
2022-10-16T03:39:37.535Z,14.07
2022-10-16T03:42:43.600Z,12.35
2022-10-16T03:45:48.861Z,12.28
2022-10-16T03:48:55.684Z,12.43
2022-10-16T03:52:01.792Z,12.28
2022-10-16T03:55:07.921Z,11.93
2022-10-16T03:58:13.469Z,12.40
2022-10-16T04:01:20.469Z,12.30
2022-10-16T04:04:25.772Z,10.90
2022-10-16T04:07:31.627Z,10.80
2022-10-16T04:10:38.405Z,11.93
2022-10-16T04:13:45.092Z,11.68
2022-10-16T04:16:51.730Z,11.63
2022-10-16T04:19:57.399Z,11.83
2022-10-16T04:23:03.567Z,11.45
2022-10-16T04:26:10.359Z,11.60
2022-10-16T04:29:18.307Z,11.40
2022-10-16T04:32:25.376Z,12.03
2022-10-16T04:35:32.990Z,12.20
2022-10-16T04:38:38.924Z,11.95
2022-10-16T04:41:46.034Z,12.33
2022-10-16T04:44:52.942Z,11.97
2022-10-16T04:47:59.040Z,13.00
2022-10-16T04:51:05.800Z,14.93
2022-10-16T04:54:12.230Z,16.42
2022-10-16T04:57:18.148Z,16.65
2022-10-16T05:00:25.087Z,15.93
2022-10-16T05:06:37.618Z,14.47
2022-10-16T05:09:44.682Z,15.18
2022-10-16T05:12:50.788Z,14.15
2022-10-16T05:16:00.935Z,12.85
2022-10-16T05:19:28.014Z,12.98
2022-10-16T05:22:17.505Z,11.43
2022-10-16T05:25:25.119Z,12.40
2022-10-16T05:28:32.083Z,13.00
2022-10-16T05:31:40.077Z,12.05
2022-10-16T05:34:45.926Z,11.83
2022-10-16T05:37:54.540Z,13.72
2022-10-16T05:41:03.401Z,11.65
2022-10-16T05:44:08.605Z,12.47
2022-10-16T05:47:16.102Z,14.20
2022-10-16T05:50:23.431Z,13.00
2022-10-16T05:53:31.033Z,13.10
2022-10-16T05:56:37.586Z,12.95
2022-10-16T05:59:45.191Z,11.33
2022-10-16T06:02:51.486Z,13.08
2022-10-16T06:05:56.675Z,12.90
2022-10-16T06:09:03.423Z,12.10
2022-10-16T06:12:10.217Z,11.68
2022-10-16T06:15:16.580Z,11.85
2022-10-16T06:18:22.902Z,12.05
2022-10-16T06:21:35.790Z,12.35
2022-10-16T06:24:44.112Z,11.30
2022-10-16T06:27:49.801Z,12.23
2022-10-16T06:30:56.402Z,12.47
2022-10-16T06:34:08.303Z,10.72
2022-10-16T06:37:14.813Z,11.40
2022-10-16T06:40:24.005Z,11.57
2022-10-16T06:43:32.435Z,11.97
2022-10-16T06:46:40.405Z,10.65
2022-10-16T06:49:51.832Z,9.90
2022-10-16T06:52:56.661Z,10.90
2022-10-16T06:56:03.460Z,10.10
2022-10-16T06:59:11.290Z,9.60
2022-10-16T07:02:17.990Z,9.45
2022-10-16T07:05:25.425Z,9.28
2022-10-16T07:08:32.687Z,9.55
2022-10-16T07:11:40.147Z,8.20
2022-10-16T07:14:47.979Z,8.60
2022-10-16T07:17:54.994Z,10.25
2022-10-16T07:21:03.611Z,10.35
2022-10-16T07:24:15.044Z,10.15
2022-10-16T07:27:23.477Z,8.73
2022-10-16T07:30:30.486Z,11.80
2022-10-16T07:33:37.533Z,9.63
2022-10-16T07:36:47.111Z,8.75
2022-10-16T07:39:53.929Z,7.37
2022-10-16T07:43:02.281Z,8.10
2022-10-16T07:46:09.121Z,9.23
2022-10-16T07:49:15.135Z,7.85
2022-10-16T07:52:21.485Z,7.20
2022-10-16T07:55:30.084Z,7.45
2022-10-16T07:58:37.116Z,7.15
2022-10-16T08:01:43.594Z,7.25
2022-10-16T08:04:50.253Z,6.67
2022-10-16T08:07:57.613Z,6.58
2022-10-16T08:11:03.493Z,6.87
2022-10-16T08:14:10.788Z,6.00
2022-10-16T08:17:18.292Z,5.87
2022-10-16T08:20:26.719Z,6.22
2022-10-16T08:23:33.535Z,6.00
2022-10-16T08:26:41.277Z,5.47
2022-10-16T08:29:47.918Z,4.65
2022-10-16T08:32:55.158Z,4.97
2022-10-16T08:36:09.160Z,5.30
2022-10-16T08:39:18.075Z,5.67
2022-10-16T08:42:37.334Z,4.83
2022-10-16T08:46:12.936Z,4.80
2022-10-16T08:49:22.643Z,4.97
2022-10-16T08:52:29.623Z,4.22
2022-10-16T08:56:07.751Z,4.80
2022-10-16T08:59:14.675Z,4.35
2022-10-16T09:02:39.588Z,3.92
2022-10-16T09:06:30.232Z,3.58
2022-10-16T09:10:03.444Z,4.40
2022-10-16T09:16:50.426Z,4.25
2022-10-16T09:20:04.278Z,4.08
2022-10-16T09:23:50.113Z,4.28
2022-10-16T09:26:56.406Z,4.12
2022-10-16T09:30:03.019Z,4.30
2022-10-16T09:33:10.938Z,4.75
2022-10-16T09:36:20.547Z,5.00
2022-10-16T09:39:27.275Z,4.30
2022-10-16T09:42:47.314Z,3.98
2022-10-16T09:45:53.576Z,4.40
2022-10-16T09:49:03.719Z,4.37
2022-10-16T09:52:21.107Z,4.10
2022-10-16T09:55:34.750Z,4.55
2022-10-16T09:58:41.333Z,4.50
2022-10-16T10:02:00.941Z,4.67
2022-10-16T10:05:09.159Z,5.22
2022-10-16T10:08:17.545Z,5.30
2022-10-16T10:11:23.384Z,4.70
2022-10-16T10:14:54.799Z,5.58
2022-10-16T10:18:04.620Z,5.15
2022-10-16T10:21:18.231Z,6.08
2022-10-16T10:24:30.615Z,5.62
2022-10-16T10:27:37.430Z,5.20
2022-10-16T10:31:07.420Z,5.28
2022-10-16T10:34:56.837Z,5.90
2022-10-16T10:38:39.033Z,5.22
2022-10-16T10:42:10.208Z,5.17
2022-10-16T10:45:42.942Z,5.33
2022-10-16T10:52:40.508Z,5.22
2022-10-16T10:56:00.319Z,5.37
2022-10-16T10:59:37.690Z,5.17
2022-10-16T11:03:04.633Z,4.67
2022-10-16T11:06:38.265Z,4.30
2022-10-16T11:09:54.983Z,4.58
2022-10-16T11:13:08.334Z,4.30
2022-10-16T11:16:23.935Z,4.10
2022-10-16T11:19:41.607Z,4.10
2022-10-16T11:23:09.555Z,3.95
2022-10-16T11:26:22.295Z,4.17
2022-10-16T11:29:42.537Z,4.10
2022-10-16T11:33:11.061Z,4.20
2022-10-16T11:36:46.285Z,4.60
2022-10-16T11:39:51.527Z,4.92
2022-10-16T11:43:03.506Z,4.30
2022-10-16T11:46:14.673Z,3.70
2022-10-16T11:49:38.275Z,4.10
2022-10-16T11:52:55.188Z,3.72
2022-10-16T11:56:01.336Z,3.65
2022-10-16T11:59:21.442Z,3.87
2022-10-16T12:02:50.408Z,3.83
2022-10-16T12:06:25.596Z,3.75
2022-10-16T12:09:39.549Z,3.45
2022-10-16T12:12:54.664Z,3.67
2022-10-16T12:16:00.200Z,3.70
2022-10-16T12:19:18.203Z,3.75
2022-10-16T12:22:30.856Z,4.15
2022-10-16T12:25:47.705Z,3.87
2022-10-16T12:28:57.072Z,4.05
2022-10-16T12:32:03.029Z,3.30
2022-10-16T12:35:10.285Z,3.47
2022-10-16T12:38:35.219Z,2.85
2022-10-16T12:41:48.306Z,3.22
2022-10-16T12:44:52.361Z,2.90
2022-10-16T12:48:08.268Z,2.92
2022-10-16T12:51:35.170Z,3.25
2022-10-16T12:54:54.597Z,3.60
2022-10-16T12:58:19.931Z,3.67
2022-10-16T13:01:43.454Z,3.83
2022-10-16T13:05:09.431Z,3.60
2022-10-16T13:08:36.961Z,4.10
2022-10-16T13:12:06.308Z,3.77
2022-10-16T13:15:43.153Z,3.75
2022-10-16T13:22:20.390Z,3.20
2022-10-16T13:25:49.016Z,3.55
2022-10-16T13:28:56.192Z,4.03
2022-10-16T13:32:03.497Z,4.37
2022-10-16T13:35:08.733Z,4.37
2022-10-16T13:38:35.909Z,3.47
2022-10-16T13:41:44.407Z,4.00
2022-10-16T13:44:58.918Z,4.15
2022-10-16T13:48:06.091Z,4.12
2022-10-16T13:51:31.719Z,4.03
2022-10-16T13:54:38.329Z,4.05
2022-10-16T13:57:44.153Z,4.17
2022-10-16T14:00:50.393Z,3.85
2022-10-16T14:03:58.242Z,3.83
2022-10-16T14:07:06.239Z,4.00
2022-10-16T14:10:15.748Z,4.15
2022-10-16T14:13:22.792Z,3.67
2022-10-16T14:16:43.527Z,3.87
2022-10-16T14:19:52.988Z,4.20
2022-10-16T14:22:53.365Z,4.70
2022-10-16T14:26:00.090Z,3.95
2022-10-16T14:29:18.617Z,4.90
2022-10-16T14:32:32.617Z,4.65
2022-10-16T14:35:51.445Z,5.20
2022-10-16T14:39:04.469Z,4.75
2022-10-16T14:42:13.163Z,5.85
2022-10-16T14:45:24.703Z,5.60
2022-10-16T14:48:33.091Z,5.28
2022-10-16T14:51:39.392Z,6.30
2022-10-16T14:54:44.743Z,6.50
2022-10-16T14:57:50.057Z,6.40
2022-10-16T15:00:56.931Z,6.10
2022-10-16T15:04:03.764Z,5.83
2022-10-16T15:07:10.693Z,6.05
2022-10-16T15:10:17.663Z,6.33
2022-10-16T15:13:27.823Z,7.40
2022-10-16T15:16:33.310Z,9.43
2022-10-16T15:19:42.367Z,10.15
2022-10-16T15:22:47.859Z,11.50
2022-10-16T15:26:03.023Z,10.95
2022-10-16T15:29:10.334Z,10.70
2022-10-16T15:32:17.168Z,14.80
2022-10-16T15:35:25.234Z,17.35
2022-10-16T15:38:31.815Z,18.27
2022-10-16T15:41:38.311Z,18.57
2022-10-16T15:44:44.592Z,16.87
2022-10-16T15:47:45.750Z,17.30
2022-10-16T15:50:52.028Z,16.75
2022-10-16T15:54:00.183Z,18.73
2022-10-16T15:57:06.631Z,17.92
2022-10-16T16:00:15.248Z,18.42
2022-10-16T16:03:24.921Z,23.10
2022-10-16T16:06:33.629Z,26.27
2022-10-16T16:09:40.482Z,27.32
2022-10-16T16:12:46.937Z,35.10
2022-10-16T16:15:56.892Z,41.02
2022-10-16T16:19:06.528Z,40.48
2022-10-16T16:22:13.076Z,45.58
2022-10-16T16:25:19.540Z,49.88
2022-10-16T16:28:25.821Z,49.33
2022-10-16T16:31:32.641Z,47.30
2022-10-16T16:34:41.804Z,45.45
2022-10-16T16:37:47.095Z,47.15
2022-10-16T16:40:56.199Z,42.83
2022-10-16T16:44:00.878Z,40.55
2022-10-16T16:47:08.720Z,35.03
2022-10-16T16:50:15.322Z,32.80
2022-10-16T16:53:19.519Z,27.77
2022-10-16T16:56:26.560Z,27.48
2022-10-16T16:59:34.903Z,26.27
2022-10-16T17:02:40.631Z,27.55
2022-10-16T17:05:46.591Z,37.05
2022-10-16T17:08:53.283Z,40.43
2022-10-16T17:11:58.426Z,40.85
2022-10-16T17:15:06.172Z,37.38
2022-10-16T17:18:14.169Z,35.33
2022-10-16T17:21:20.977Z,31.35
2022-10-16T17:24:27.445Z,30.85
2022-10-16T17:27:34.399Z,29.42
2022-10-16T17:30:41.963Z,29.35
2022-10-16T17:33:47.866Z,30.05
2022-10-16T17:36:54.980Z,28.47
2022-10-16T17:40:00.372Z,26.40
2022-10-16T17:43:07.643Z,28.95
2022-10-16T17:46:13.013Z,27.07
2022-10-16T17:49:19.740Z,27.25
2022-10-16T17:52:26.864Z,24.15
2022-10-16T17:55:34.026Z,23.25
2022-10-16T17:58:41.967Z,23.52
2022-10-16T18:01:53.227Z,21.70
2022-10-16T18:05:01.244Z,21.20
2022-10-16T18:08:08.344Z,20.80
2022-10-16T18:11:15.759Z,23.60
2022-10-16T18:14:22.613Z,21.73
2022-10-16T18:17:30.938Z,23.57
2022-10-16T18:20:39.264Z,28.30
2022-10-16T18:23:52.033Z,32.80
2022-10-16T18:26:57.142Z,31.20
2022-10-16T18:30:05.236Z,36.48
2022-10-16T18:33:12.452Z,37.83
2022-10-16T18:36:21.510Z,38.53
2022-10-16T18:39:30.172Z,37.42
2022-10-16T18:42:36.325Z,36.77
2022-10-16T18:45:43.163Z,32.83
2022-10-16T18:48:50.778Z,33.55
2022-10-16T18:51:59.814Z,32.88
2022-10-16T18:55:07.415Z,31.85
2022-10-16T18:58:14.619Z,30.40
2022-10-16T19:01:23.226Z,33.63
2022-10-16T19:04:32.749Z,35.45
2022-10-16T19:07:38.552Z,41.75
2022-10-16T19:10:45.205Z,45.30
2022-10-16T19:13:51.335Z,40.58
2022-10-16T19:16:59.206Z,33.90
2022-10-16T19:20:06.168Z,31.80
2022-10-16T19:23:13.930Z,31.00
2022-10-16T19:26:24.459Z,32.80
2022-10-16T19:29:30.820Z,32.53
2022-10-16T19:32:37.000Z,32.13
2022-10-16T19:35:44.490Z,29.72
2022-10-16T19:38:50.780Z,26.40
2022-10-16T19:41:56.924Z,27.05
2022-10-16T19:45:06.842Z,28.45
2022-10-16T19:48:15.148Z,26.00
2022-10-16T19:51:22.035Z,26.55
2022-10-16T19:54:29.344Z,28.62
2022-10-16T20:00:44.136Z,26.48
2022-10-16T20:03:49.501Z,25.10
2022-10-16T20:06:56.722Z,24.55
2022-10-16T20:10:02.077Z,26.02
2022-10-16T20:13:08.119Z,24.37
2022-10-16T20:16:14.187Z,24.40
2022-10-16T20:19:23.428Z,23.55
2022-10-16T20:22:29.531Z,24.07
2022-10-16T20:25:37.481Z,24.30
2022-10-16T20:28:43.553Z,23.75
2022-10-16T20:31:54.216Z,24.07
2022-10-16T20:35:02.073Z,23.70
2022-10-16T20:38:09.306Z,27.17
2022-10-16T20:41:19.374Z,28.32
2022-10-16T20:44:26.773Z,31.48
2022-10-16T20:47:31.825Z,30.88
2022-10-16T20:50:40.617Z,29.00
2022-10-16T20:53:46.320Z,29.55
2022-10-16T20:56:53.354Z,28.77
2022-10-16T21:00:03.029Z,26.77
2022-10-16T21:03:09.310Z,26.15
2022-10-16T21:06:19.589Z,27.40
2022-10-16T21:09:29.724Z,25.25
2022-10-16T21:12:35.186Z,23.65
2022-10-16T21:15:41.116Z,23.65
2022-10-16T21:18:50.395Z,23.40
2022-10-16T21:21:56.512Z,21.97
2022-10-16T21:25:02.741Z,21.60
2022-10-16T21:28:08.817Z,22.13
2022-10-16T21:31:17.977Z,23.22
2022-10-16T21:34:22.778Z,23.35
2022-10-16T21:37:28.271Z,22.65
2022-10-16T21:40:34.367Z,22.58
2022-10-16T21:43:40.051Z,22.30
2022-10-16T21:46:46.601Z,22.02
2022-10-16T21:49:52.861Z,21.05
2022-10-16T21:52:59.774Z,20.52
2022-10-16T21:56:07.184Z,20.05
2022-10-16T21:59:15.664Z,20.72
2022-10-16T22:02:22.218Z,20.40
2022-10-16T22:05:30.995Z,20.88
2022-10-16T22:08:36.922Z,20.77
2022-10-16T22:11:45.742Z,22.17
2022-10-16T22:14:51.595Z,21.33
2022-10-16T22:17:58.680Z,20.23
2022-10-16T22:21:04.728Z,21.20
2022-10-16T22:24:13.888Z,17.82
2022-10-16T22:27:22.876Z,18.42
2022-10-16T22:30:29.506Z,17.25
2022-10-16T22:33:35.794Z,17.55
2022-10-16T22:36:42.272Z,15.48
2022-10-16T22:39:50.420Z,16.27
2022-10-16T22:42:55.465Z,16.20
2022-10-16T22:46:03.466Z,17.57
2022-10-16T22:49:11.113Z,15.93
2022-10-16T22:52:16.355Z,15.68
2022-10-16T22:55:23.563Z,17.23
2022-10-16T22:58:29.701Z,16.57
2022-10-16T23:01:43.818Z,16.57
2022-10-16T23:04:49.234Z,16.35
2022-10-16T23:07:57.089Z,15.15
2022-10-16T23:11:07.352Z,16.07
2022-10-16T23:14:13.519Z,15.95
2022-10-16T23:17:21.230Z,15.78
2022-10-16T23:20:28.050Z,14.43
2022-10-16T23:23:34.811Z,14.70
2022-10-16T23:26:42.193Z,15.18
2022-10-16T23:29:48.444Z,14.87
2022-10-16T23:32:56.285Z,15.65
2022-10-16T23:36:03.804Z,16.45
2022-10-16T23:39:11.108Z,15.08
2022-10-16T23:42:17.849Z,15.45
2022-10-16T23:45:23.513Z,15.32
2022-10-16T23:48:30.071Z,15.30
2022-10-16T23:51:37.206Z,14.60
2022-10-16T23:54:43.318Z,15.05
2022-10-16T23:57:49.676Z,13.45
